^^
Meteo Knjazevac Station Historical Data
Daily Summary for May 15, 2022 Units:  English    Metric   Both
Daily Weekly Monthly Yearly Custom
  High: Low: Average:
Temperature: 83.5 °F 48.6 °F 66.7 °F
Dew Point: 58.2 °F 45.2 °F 52 °F
Humidity: 93% 38% 63%
Wind Speed: 8mph 0mph 1.8mph
Wind Gust: 13mph - -
Wind- - SSW
Pressure: 30.15 in 30.08 in -
Precipitation: 0.00 in    
Historical Graphs
 
 
Tabular Data for May 15, 2022
Time Temperature Dew Point Pressure Wind Wind Speed Wind Gust Humidity Rainfall Rate (Hourly) solar Conditions
00:00 58.6 °F 51.8 °F 30.11 in SSE 2 mph 4 mph 78% 0.00 in 0 W/m2
00:10 58.1 °F 51.3 °F 30.11 in NNE 1 mph 3 mph 78% 0.00 in 0 W/m2
00:20 57.9 °F 51.1 °F 30.11 in Calm   2 mph 78% 0.00 in 0 W/m2
00:30 57.4 °F 50.6 °F 30.11 in Calm   2 mph 78% 0.00 in 0 W/m2
00:40 57.2 °F 50.7 °F 30.11 in NNE 2 mph 2 mph 79% 0.00 in 0 W/m2
00:50 57 °F 50.5 °F 30.12 in Calm   2 mph 79% 0.00 in 0 W/m2
01:00 56.8 °F 50.3 °F 30.12 in Calm   2 mph 79% 0.00 in 0 W/m2
01:10 56.5 °F 50 °F 30.12 in Calm   2 mph 79% 0.00 in 0 W/m2
01:20 56.2 °F 50.2 °F 30.12 in Calm   4 mph 80% 0.00 in 0 W/m2
01:30 55.9 °F 49.9 °F 30.12 in Calm   2 mph 80% 0.00 in 0 W/m2
01:40 55.5 °F 49.5 °F 30.12 in Calm   2 mph 80% 0.00 in 0 W/m2
01:50 55 °F 49 °F 30.12 in Calm   2 mph 80% 0.00 in 0 W/m2
02:00 54.5 °F 48.5 °F 30.12 in Calm   2 mph 80% 0.00 in 0 W/m2
02:10 54.1 °F 48.4 °F 30.12 in Calm   1 mph 81% 0.00 in 0 W/m2
02:20 53.5 °F 47.9 °F 30.12 in WNW 1 mph 2 mph 81% 0.00 in 0 W/m2
02:30 52.9 °F 47.9 °F 30.12 in Calm   2 mph 83% 0.00 in 0 W/m2
02:40 52.3 °F 47.3 °F 30.12 in Calm   2 mph 83% 0.00 in 0 W/m2
02:50 52.2 °F 47.5 °F 30.12 in NW 1 mph 2 mph 84% 0.00 in 0 W/m2
03:00 52.2 °F 47.5 °F 30.12 in Calm   2 mph 84% 0.00 in 0 W/m2
03:10 51.8 °F 47.4 °F 30.12 in Calm   2 mph 85% 0.00 in 0 W/m2
03:20 51.8 °F 47.7 °F 30.12 in Calm   2 mph 86% 0.00 in 0 W/m2
03:30 51.4 °F 47.1 °F 30.12 in NW 1 mph 2 mph 85% 0.00 in 0 W/m2
03:40 51.1 °F 46.7 °F 30.12 in Calm   3 mph 85% 0.00 in 0 W/m2
03:50 50.7 °F 46.4 °F 30.12 in Calm   2 mph 85% 0.00 in 0 W/m2
04:00 50.2 °F 45.8 °F 30.12 in Calm   2 mph 85% 0.00 in 0 W/m2
04:10 49.9 °F 45.9 °F 30.13 in NNW 1 mph 2 mph 86% 0.00 in 0 W/m2
04:20 49.8 °F 46.4 °F 30.12 in NW 1 mph 2 mph 88% 0.00 in 0 W/m2
04:30 49.6 °F 45.6 °F 30.12 in Calm   2 mph 86% 0.00 in 0 W/m2
04:40 49.5 °F 45.8 °F 30.13 in NW 1 mph 2 mph 87% 0.00 in 0 W/m2
04:50 49.5 °F 46.1 °F 30.13 in NNW 1 mph 2 mph 88% 0.00 in 0 W/m2
05:00 49.1 °F 46 °F 30.13 in NW 1 mph 2 mph 89% 0.00 in 0 W/m2
05:10 49.4 °F 46.3 °F 30.13 in Calm   2 mph 89% 0.00 in 4 W/m2
05:20 49.1 °F 45.7 °F 30.13 in Calm   2 mph 88% 0.00 in 9 W/m2
05:30 48.7 °F 45.3 °F 30.13 in Calm   2 mph 88% 0.00 in 14 W/m2
05:40 48.7 °F 45.3 °F 30.13 in NW 1 mph 2 mph 88% 0.00 in 22 W/m2
05:50 48.6 °F 45.2 °F 30.14 in NW 1 mph 2 mph 88% 0.00 in 31 W/m2
06:00 48.6 °F 45.5 °F 30.13 in Calm   2 mph 89% 0.00 in 38 W/m2
06:10 48.6 °F 45.5 °F 30.14 in Calm     89% 0.00 in 42 W/m2
06:20 48.7 °F 45.9 °F 30.14 in Calm   2 mph 90% 0.00 in 63 W/m2
06:30 49.2 °F 46.7 °F 30.14 in NNE 1 mph 3 mph 91% 0.00 in 131 W/m2
06:40 49.9 °F 47.4 °F 30.14 in NE 1 mph 4 mph 91% 0.00 in 158 W/m2
06:50 50.7 °F 48.8 °F 30.14 in Calm   4 mph 93% 0.00 in 200 W/m2
07:00 51.8 °F 49.5 °F 30.14 in East 2 mph 5 mph 92% 0.00 in 233 W/m2
07:10 52.9 °F 50.4 °F 30.15 in East 2 mph 6 mph 91% 0.00 in 269 W/m2
07:20 54.3 °F 51.4 °F 30.15 in ESE 2 mph 4 mph 90% 0.00 in 309 W/m2
07:30 55.5 °F 52.3 °F 30.15 in SSE 1 mph 5 mph 89% 0.00 in 312 W/m2
07:40 56.5 °F 53 °F 30.15 in South 1 mph 3 mph 88% 0.00 in 364 W/m2
07:50 57.6 °F 53.4 °F 30.15 in SW 1 mph 2 mph 86% 0.00 in 315 W/m2
08:00 58.6 °F 53.8 °F 30.15 in West 1 mph 2 mph 84% 0.00 in 410 W/m2
08:10 60 °F 53.8 °F 30.15 in SE 2 mph 7 mph 80% 0.00 in 446 W/m2
08:20 61.6 °F 54.3 °F 30.15 in ESE 1 mph 7 mph 77% 0.00 in 506 W/m2
08:30 63.8 °F 55.3 °F 30.15 in SW 1 mph 4 mph 74% 0.00 in 440 W/m2
08:40 65.1 °F 55.1 °F 30.15 in East 1 mph 4 mph 70% 0.00 in 548 W/m2
08:50 66.5 °F 55.6 °F 30.15 in ESE 3 mph 6 mph 68% 0.00 in 590 W/m2
09:00 67.5 °F 55.4 °F 30.15 in East 2 mph 7 mph 65% 0.00 in 599 W/m2
09:10 69 °F 56.3 °F 30.15 in ESE 2 mph 7 mph 64% 0.00 in 669 W/m2
09:20 70.3 °F 56.7 °F 30.15 in ESE 3 mph 7 mph 62% 0.00 in 566 W/m2
09:30 70.9 °F 56.3 °F 30.15 in ENE 3 mph 8 mph 60% 0.00 in 720 W/m2
09:40 71.8 °F 56.2 °F 30.15 in ENE 2 mph 9 mph 58% 0.00 in 481 W/m2
09:50 72 °F 56 °F 30.15 in NE 3 mph 6 mph 57% 0.00 in 736 W/m2
10:00 73.2 °F 56.1 °F 30.15 in North 1 mph 5 mph 55% 0.00 in 787 W/m2
10:10 73.9 °F 56.2 °F 30.15 in WSW 2 mph 5 mph 54% 0.00 in 808 W/m2
10:20 74.7 °F 55.9 °F 30.15 in WNW 1 mph 7 mph 52% 0.00 in 824 W/m2
10:30 75.3 °F 55.4 °F 30.15 in NW 3 mph 8 mph 50% 0.00 in 829 W/m2
10:40 76 °F 56 °F 30.15 in West 1 mph 6 mph 50% 0.00 in 290 W/m2
10:50 76.8 °F 56.2 °F 30.14 in WNW 7 mph 9 mph 49% 0.00 in 876 W/m2
11:00 77.4 °F 57.3 °F 30.14 in NNE 5 mph 13 mph 50% 0.00 in 890 W/m2
11:10 77.6 °F 55.8 °F 30.15 in NE 2 mph 8 mph 47% 0.00 in 364 W/m2
11:20 77.5 °F 55.7 °F 30.14 in NNE 7 mph 12 mph 47% 0.00 in 311 W/m2
11:30 77.7 °F 55.9 °F 30.14 in NW 2 mph 7 mph 47% 0.00 in 359 W/m2
11:40 77.4 °F 55.6 °F 30.14 in NW 5 mph 10 mph 47% 0.00 in 466 W/m2
11:50 77.7 °F 55.3 °F 30.14 in West 8 mph 13 mph 46% 0.00 in 330 W/m2
12:00 77.1 °F 55.3 °F 30.14 in WNW 3 mph 10 mph 47% 0.00 in 258 W/m2
12:10 76.7 °F 55 °F 30.14 in West 3 mph 8 mph 47% 0.00 in 319 W/m2
12:20 77.3 °F 55.5 °F 30.14 in West 2 mph 8 mph 47% 0.00 in 946 W/m2
12:30 77.7 °F 54.7 °F 30.13 in ESE 3 mph 7 mph 45% 0.00 in 356 W/m2
12:40 77.4 °F 55.6 °F 30.13 in NE 1 mph 7 mph 47% 0.00 in 278 W/m2
12:50 77.8 °F 56.5 °F 30.13 in SSE 1 mph 6 mph 48% 0.00 in 941 W/m2
13:00 78.8 °F 56.9 °F 30.13 in North 1 mph 7 mph 47% 0.00 in 615 W/m2
13:10 78.3 °F 56.4 °F 30.13 in NNW 2 mph 6 mph 47% 0.00 in 252 W/m2
13:20 78.8 °F 56.9 °F 30.13 in NNW 1 mph 6 mph 47% 0.00 in 654 W/m2
13:30 79 °F 57 °F 30.13 in WNW 2 mph 5 mph 47% 0.00 in 451 W/m2
13:40 79.9 °F 57.3 °F 30.12 in NW 3 mph 7 mph 46% 0.00 in 903 W/m2
13:50 80.8 °F 56.2 °F 30.12 in NE 3 mph 12 mph 43% 0.00 in 596 W/m2
14:00 80.1 °F 56.3 °F 30.12 in SSE 2 mph 6 mph 44% 0.00 in 583 W/m2
14:10 80.3 °F 56.4 °F 30.12 in North 5 mph 12 mph 44% 0.00 in 862 W/m2
14:20 81.1 °F 57.2 °F 30.12 in North 3 mph 10 mph 44% 0.00 in 845 W/m2
14:30 81.1 °F 56.5 °F 30.11 in NE 2 mph 5 mph 43% 0.00 in 827 W/m2
14:40 82 °F 57.3 °F 30.10 in WNW 3 mph 8 mph 43% 0.00 in 808 W/m2
14:50 82.4 °F 57.7 °F 30.10 in WNW 2 mph 7 mph 43% 0.00 in 788 W/m2
15:00 81.9 °F 56.6 °F 30.10 in South 3 mph 6 mph 42% 0.00 in 190 W/m2
15:10 81.7 °F 56.4 °F 30.10 in North 5 mph 9 mph 42% 0.00 in 741 W/m2
15:20 82.3 °F 56.9 °F 30.10 in NW 1 mph 8 mph 42% 0.00 in 720 W/m2
15:30 82.9 °F 57.5 °F 30.09 in North 3 mph 12 mph 42% 0.00 in 675 W/m2
15:40 82.4 °F 55.7 °F 30.10 in North 2 mph 8 mph 40% 0.00 in 670 W/m2
15:50 82.4 °F 57 °F 30.09 in NW 3 mph 7 mph 42% 0.00 in 643 W/m2
16:00 83 °F 58.2 °F 30.09 in North 3 mph 8 mph 43% 0.00 in 616 W/m2
16:10 83.1 °F 56.3 °F 30.09 in North 2 mph 9 mph 40% 0.00 in 588 W/m2
16:20 82.5 °F 55.7 °F 30.09 in NNW 1 mph 6 mph 40% 0.00 in 510 W/m2
16:30 82.6 °F 57.2 °F 30.09 in North 2 mph 8 mph 42% 0.00 in 252 W/m2
16:40 82.2 °F 55.5 °F 30.08 in NNE 3 mph 8 mph 40% 0.00 in 499 W/m2
16:50 82.7 °F 55.9 °F 30.08 in North 1 mph 5 mph 40% 0.00 in 469 W/m2
17:00 83.3 °F 56.5 °F 30.08 in North 3 mph 8 mph 40% 0.00 in 438 W/m2
17:10 83.5 °F 55.9 °F 30.08 in NNW 3 mph 7 mph 39% 0.00 in 407 W/m2
17:20 83.3 °F 56.5 °F 30.08 in North 2 mph 7 mph 40% 0.00 in 369 W/m2
17:30 83.5 °F 55.2 °F 30.08 in WNW 5 mph 8 mph 38% 0.00 in 330 W/m2
17:40 82.5 °F 54.3 °F 30.08 in West 6 mph 9 mph 38% 0.00 in 291 W/m2
17:50 82.3 °F 54.1 °F 30.08 in WSW 6 mph 10 mph 38% 0.00 in 254 W/m2
18:00 81.7 °F 53.6 °F 30.08 in West 5 mph 10 mph 38% 0.00 in 223 W/m2
18:10 81.3 °F 53.3 °F 30.08 in West 5 mph 10 mph 38% 0.00 in 194 W/m2
18:20 81 °F 53.7 °F 30.08 in WSW 5 mph 8 mph 39% 0.00 in 164 W/m2
18:30 80.3 °F 53.8 °F 30.08 in West 6 mph 9 mph 40% 0.00 in 136 W/m2
18:40 79.4 °F 54.3 °F 30.08 in West 3 mph 9 mph 42% 0.00 in 110 W/m2
18:50 79 °F 53.3 °F 30.08 in West 6 mph 10 mph 41% 0.00 in 87 W/m2
19:00 78.4 °F 53.4 °F 30.08 in WSW 5 mph 8 mph 42% 0.00 in 64 W/m2
19:10 77.8 °F 52.9 °F 30.09 in West 5 mph 9 mph 42% 0.00 in 46 W/m2
19:20 77.1 °F 52.8 °F 30.09 in West 6 mph 8 mph 43% 0.00 in 31 W/m2
19:30 76 °F 52.5 °F 30.09 in West 3 mph 8 mph 44% 0.00 in 19 W/m2
19:40 74.8 °F 51.5 °F 30.10 in West 3 mph 7 mph 44% 0.00 in 9 W/m2
19:50 74 °F 50.7 °F 30.10 in WNW 5 mph 7 mph 44% 0.00 in 0 W/m2
20:00 73.3 °F 50.7 °F 30.11 in NW 2 mph 6 mph 45% 0.00 in 0 W/m2
20:10 72.5 °F 51.1 °F 30.11 in West 1 mph 4 mph 47% 0.00 in 0 W/m2
20:20 71.3 °F 51.2 °F 30.11 in WSW 1 mph 3 mph 49% 0.00 in 0 W/m2
20:30 70 °F 51.6 °F 30.12 in South 1 mph 4 mph 52% 0.00 in 0 W/m2
20:40 68.8 °F 51.5 °F 30.12 in South 2 mph 4 mph 54% 0.00 in 0 W/m2
20:50 67.8 °F 51 °F 30.12 in SW 1 mph 3 mph 55% 0.00 in 0 W/m2
21:00 66.8 °F 51.1 °F 30.13 in SW 1 mph 3 mph 57% 0.00 in 0 W/m2
21:10 65.9 °F 50.7 °F 30.13 in SSW 2 mph 5 mph 58% 0.00 in 0 W/m2
21:20 65 °F 50.3 °F 30.13 in South 1 mph 5 mph 59% 0.00 in 0 W/m2
21:30 63.8 °F 49.7 °F 30.13 in Calm   2 mph 60% 0.00 in 0 W/m2
21:40 63.1 °F 49.5 °F 30.14 in Calm   1 mph 61% 0.00 in 0 W/m2
21:50 62.3 °F 49.5 °F 30.14 in Calm   1 mph 63% 0.00 in 0 W/m2
22:00 61.5 °F 49.2 °F 30.14 in NNW 1 mph 2 mph 64% 0.00 in 0 W/m2
22:10 60.6 °F 48.3 °F 30.15 in Calm   2 mph 64% 0.00 in 0 W/m2
22:20 59.7 °F 47.9 °F 30.15 in SW 1 mph 3 mph 65% 0.00 in 0 W/m2
22:30 59.2 °F 47.4 °F 30.15 in Calm   3 mph 65% 0.00 in 0 W/m2
22:40 58.6 °F 47.7 °F 30.15 in SW 1 mph 3 mph 67% 0.00 in 0 W/m2
22:50 58.1 °F 47.6 °F 30.15 in WSW 1 mph 3 mph 68% 0.00 in 0 W/m2
23:00 57.6 °F 47.1 °F 30.15 in Calm   2 mph 68% 0.00 in 0 W/m2
23:10 57.3 °F 46.9 °F 30.15 in Calm   2 mph 68% 0.00 in 0 W/m2
23:20 56.8 °F 46.4 °F 30.15 in Calm   2 mph 68% 0.00 in 0 W/m2
23:30 56.3 °F 46.3 °F 30.15 in Calm   2 mph 69% 0.00 in 0 W/m2
23:40 55.8 °F 46.1 °F 30.15 in West 2 mph 3 mph 70% 0.00 in 0 W/m2
23:50 55.2 °F 46.3 °F 30.15 in Calm   2 mph 72% 0.00 in 0 W/m2
Knjazevac, Serbia
Compliments of Weather Underground - 2 mb